James Turecamo — WDC7565 — position and weather

sailwx.info

Track history (hours):
 
Tides and Currents Weather Stations Pressure Air Temp Water Temp Dewpoint Dewpoint Depression Visibility Wind Speed Wind Dir Waves Ship Positions

James Turecamo

Owner: Moran Towing Corporation, New Canaan, CT. More information available from US FCC via Universal Licensing System and Coast Guard Vessel Documentation Center.

Last reported at 2015-Sep-03 12:33 UTC. Time now 2015-Sep-03 13:00 UTC.
Position N 40°38' W 074°08'.

Length 27 m; draft 4.5 m.

Type: Tug. MMSI: 367073380.

Date/timePositionNaut miles runAvg speedWind from/ knotsBaromVisibWave heightAir tempDewpointWater temp
2015-Sep-03 12:33N 40°38' W 074°08'0 0.0
2015-Sep-03 11:33N 40°38' W 074°08'0 0.0
2015-Sep-03 10:32N 40°38' W 074°08'6 6.6
2015-Sep-03 09:33N 40°44' W 074°05'5 5.1
2015-Sep-03 08:34N 40°49' W 074°02'0 0.5
2015-Sep-03 07:33N 40°49' W 074°02'3 3.5
2015-Sep-03 06:33N 40°46' W 074°05'2 2.1
2015-Sep-03 05:33N 40°44' W 074°06'1 0.6
2015-Sep-03 03:33N 40°44' W 074°07'6 5.8
2015-Sep-03 02:33N 40°39' W 074°08'0 0.1
2015-Sep-03 01:33N 40°38' W 074°08'0 0.0
2015-Sep-03 00:32N 40°38' W 074°08'0 0.0
2015-Sep-02 23:33N 40°38' W 074°08'0 0.0
2015-Sep-02 22:33N 40°38' W 074°08'7 6.9
2015-Sep-02 21:31N 40°33' W 074°14'2 0.9
2015-Sep-02 19:24N 40°35' W 074°13'1 0.3
2015-Sep-02 17:08N 40°35' W 074°12'3 5.8
2015-Sep-02 16:33N 40°39' W 074°11'3 2.7
2015-Sep-02 15:33N 40°38' W 074°08'0 0.0
2015-Sep-02 14:33N 40°38' W 074°08'0 0.0
2015-Sep-02 13:26N 40°38' W 074°08'0 0.0
2015-Sep-02 12:33N 40°38' W 074°08'0 0.0
2015-Sep-02 11:33N 40°38' W 074°08'1 0.9
2015-Sep-02 10:33N 40°39' W 074°09'2 2.4
2015-Sep-02 09:33N 40°41' W 074°09'3 2.6
2015-Sep-02 08:33N 40°38' W 074°08'0 0.0
2015-Sep-02 07:33N 40°38' W 074°08'0 0.0
2015-Sep-02 06:33N 40°38' W 074°08'0 0.0
2015-Sep-02 05:33N 40°38' W 074°08'3 2.6
2015-Sep-02 04:33N 40°41' W 074°08'1 1.3
2015-Sep-02 03:33N 40°40' W 074°09'1 1.3
2015-Sep-02 02:33N 40°38' W 074°08'0 0.0
2015-Sep-02 01:33N 40°38' W 074°08'4 4.0
2015-Sep-02 00:33N 40°36' W 074°12'3 3.2
2015-Sep-01 23:33N 40°33' W 074°14'3 1.0
2015-Sep-01 20:31N 40°36' W 074°12'1 0.9
2015-Sep-01 19:29N 40°35' W 074°13'6 4.9
2015-Sep-01 18:14N 40°29' W 074°15'10 5.9
2015-Sep-01 16:33N 40°39' W 074°11'3 2.6
2015-Sep-01 15:33N 40°38' W 074°08'0 0.0
2015-Sep-01 14:33N 40°38' W 074°08'0 0.0
2015-Sep-01 13:31N 40°38' W 074°08'0 0.0
2015-Sep-01 12:29N 40°38' W 074°08'0 0.0
2015-Sep-01 11:33N 40°38' W 074°08'0 0.0
2015-Sep-01 10:20N 40°38' W 074°08'0 0.0
2015-Sep-01 09:23N 40°38' W 074°08'3 3.6
2015-Sep-01 08:33N 40°41' W 074°09'0 0.2
2015-Sep-01 07:33N 40°41' W 074°09'3 2.8
2015-Sep-01 06:33N 40°39' W 074°07'6 5.5
2015-Sep-01 05:33N 40°41' W 074°01'4 4.0
2015-Sep-01 04:33N 40°39' W 074°05'6 2.5
2015-Sep-01 02:10N 40°36' W 074°12'3 4.9
2015-Sep-01 01:33N 40°39' W 074°10'5 5.2
2015-Sep-01 00:33N 40°38' W 074°03'3 3.4
2015-Aug-31 23:33N 40°38' W 074°08'0 0.0
2015-Aug-31 22:33N 40°38' W 074°08'5 5.0
2015-Aug-31 21:28N 40°34' W 074°13'3 2.9
2015-Aug-31 20:31N 40°37' W 074°12'4 3.7
2015-Aug-31 19:33N 40°38' W 074°08'0 0.0
2015-Aug-31 18:32N 40°38' W 074°08'0 0.0
2015-Aug-31 17:32N 40°38' W 074°08'0 0.0
2015-Aug-31 16:33N 40°38' W 074°08'0 0.0
2015-Aug-31 15:33N 40°38' W 074°08'5 4.4
2015-Aug-31 14:31N 40°35' W 074°12'1 0.4
2015-Aug-31 12:05N 40°36' W 074°12'4 7.7
2015-Aug-31 11:34N 40°39' W 074°08'0 0.1
2015-Aug-31 10:33N 40°38' W 074°08'0 0.0
2015-Aug-31 09:33N 40°38' W 074°08'0 0.1
2015-Aug-31 08:33N 40°39' W 074°08'1 0.6
2015-Aug-31 07:33N 40°39' W 074°07'1 0.7
2015-Aug-31 06:33N 40°38' W 074°08'0 0.0
2015-Aug-31 05:33N 40°38' W 074°08'0 0.0
2015-Aug-31 04:33N 40°38' W 074°08'0 0.0
2015-Aug-31 03:33N 40°38' W 074°08'0 0.0
2015-Aug-31 02:33N 40°38' W 074°08'0 0.0
2015-Aug-31 01:33N 40°38' W 074°08'0 0.0
2015-Aug-31 00:33N 40°38' W 074°08'0 0.0
2015-Aug-30 23:33N 40°38' W 074°08'0 0.3
2015-Aug-30 22:33N 40°39' W 074°08'5 4.6
2015-Aug-30 21:33N 40°35' W 074°12'2 2.2
2015-Aug-30 20:33N 40°37' W 074°12'5 5.3
2015-Aug-30 19:34N 40°39' W 074°05'2 1.8
2015-Aug-30 18:33N 40°38' W 074°08'0 0.0
2015-Aug-30 17:33N 40°38' W 074°08'0 0.0
2015-Aug-30 16:33N 40°38' W 074°08'4 3.7
2015-Aug-30 15:33N 40°41' W 074°04'2 1.7
2015-Aug-30 14:33N 40°40' W 074°03'4 3.8
2015-Aug-30 13:33N 40°38' W 074°08'1 1.5
2015-Aug-30 12:33N 40°39' W 074°06'1 1.0
2015-Aug-30 11:08N 40°38' W 074°08'0 0.0
2015-Aug-30 10:33N 40°38' W 074°08'0 0.0
2015-Aug-30 09:33N 40°38' W 074°08'0 0.0
2015-Aug-30 08:33N 40°38' W 074°08'0 0.0
2015-Aug-30 07:33N 40°38' W 074°08'0 0.0
2015-Aug-30 06:33N 40°38' W 074°08'0 0.0
2015-Aug-30 05:24N 40°38' W 074°08'0 0.0
2015-Aug-30 04:33N 40°38' W 074°08'0 0.2
2015-Aug-30 03:33N 40°39' W 074°08'4 0.7
2015-Aug-29 21:29N 40°36' W 074°12'4 1.7
2015-Aug-29 19:04N 40°38' W 074°08'0 0.0
2015-Aug-29 18:33N 40°38' W 074°08'0 0.0
2015-Aug-29 17:16N 40°38' W 074°08'0 0.0
2015-Aug-29 16:29N 40°38' W 074°08'0 0.0
2015-Aug-29 15:33N 40°38' W 074°08'1 1.4
2015-Aug-29 14:33N 40°40' W 074°09'1 0.4
2015-Aug-29 11:08N 40°38' W 074°08'0 0.0
2015-Aug-29 10:25N 40°38' W 074°08'0 0.0
2015-Aug-29 09:33N 40°38' W 074°08'1 1.0
2015-Aug-29 08:29N 40°39' W 074°09'2 1.9
2015-Aug-29 07:33N 40°41' W 074°09'2 2.4
2015-Aug-29 06:31N 40°38' W 074°08'0 0.0
2015-Aug-29 05:32N 40°38' W 074°08'5 4.0
2015-Aug-29 04:21N 40°35' W 074°12'1 0.9
2015-Aug-29 03:09N 40°36' W 074°12'4 6.6
2015-Aug-29 02:33N 40°38' W 074°08'0 0.0
2015-Aug-29 00:27N 40°38' W 074°08'4 4.3
2015-Aug-28 23:31N 40°36' W 074°12'2 0.7
2015-Aug-28 20:33N 40°38' W 074°12'3 2.2
2015-Aug-28 19:11N 40°38' W 074°08'0 0.0
2015-Aug-28 18:32N 40°38' W 074°08'0 0.0
2015-Aug-28 16:09N 40°38' W 074°08'0 0.1
2015-Aug-28 15:33N 40°38' W 074°08'0 0.0
2015-Aug-28 14:33N 40°38' W 074°08'3 2.6
2015-Aug-28 13:33N 40°39' W 074°11'3 3.4
2015-Aug-28 12:33N 40°35' W 074°12'3 2.6
2015-Aug-28 11:33N 40°38' W 074°12'7 6.6
2015-Aug-28 10:33N 40°39' W 074°04'3 1.0
2015-Aug-28 07:20N 40°38' W 074°08'0 0.0
2015-Aug-28 06:12N 40°38' W 074°08'0 0.0
2015-Aug-28 04:18N 40°38' W 074°08'0 0.0
2015-Aug-28 03:33N 40°38' W 074°08'0 0.0
2015-Aug-28 01:28N 40°38' W 074°08'0 0.0
2015-Aug-27 23:33N 40°38' W 074°08'0 0.0
2015-Aug-27 21:22N 40°38' W 074°08'1 1.8
2015-Aug-27 20:33N 40°40' W 074°09'0 0.2
2015-Aug-27 19:33N 40°39' W 074°09'0 0.1
2015-Aug-27 18:33N 40°40' W 074°09'1 1.4
2015-Aug-27 17:33N 40°38' W 074°08'0 0.0
2015-Aug-27 16:32N 40°38' W 074°08'0 0.0
2015-Aug-27 15:30N 40°38' W 074°08'0 0.0
2015-Aug-27 12:27N 40°38' W 074°08'2 2.5
2015-Aug-27 11:33N 40°39' W 074°05'4 3.8
2015-Aug-27 10:33N 40°40' W 074°00'5 4.7
2015-Aug-27 09:33N 40°39' W 074°06'1 1.3
2015-Aug-27 08:32N 40°38' W 074°08'0 0.0
2015-Aug-27 07:32N 40°38' W 074°08'0 0.0
2015-Aug-27 06:30N 40°38' W 074°08'0 0.0
2015-Aug-27 05:17N 40°38' W 074°08'3 3.6
2015-Aug-27 04:33N 40°39' W 074°04'1 0.6
2015-Aug-27 03:33N 40°39' W 074°05'2 0.9
2015-Aug-27 01:10N 40°38' W 074°08'0 0.0
2015-Aug-27 00:33N 40°38' W 074°08'3 3.0
2015-Aug-26 23:33N 40°41' W 074°08'3 2.8
2015-Aug-26 22:34N 40°39' W 074°07'1 1.2
2015-Aug-26 21:33N 40°39' W 074°06'2 1.6
2015-Aug-26 20:32N 40°38' W 074°08'1 1.5
2015-Aug-26 19:33N 40°39' W 074°06'1 0.7
2015-Aug-26 17:32N 40°38' W 074°08'2 0.8
2015-Aug-26 15:33N 40°39' W 074°10'3 3.4
2015-Aug-26 14:33N 40°39' W 074°05'2 1.8
2015-Aug-26 13:28N 40°38' W 074°08'3 3.6
2015-Aug-26 12:33N 40°42' W 074°09'0 0.4
2015-Aug-26 11:33N 40°41' W 074°08'1 0.6
2015-Aug-26 10:30N 40°42' W 074°09'2 1.8
2015-Aug-26 09:34N 40°40' W 074°08'2 0.4
2015-Aug-26 05:25N 40°38' W 074°08'0 0.0
2015-Aug-26 04:17N 40°38' W 074°08'2 3.1
2015-Aug-26 03:29N 40°39' W 074°11'3 0.9
2015-Aug-26 00:28N 40°36' W 074°12'4 4.3
2015-Aug-25 23:33N 40°38' W 074°08'0 0.0
2015-Aug-25 22:28N 40°38' W 074°08'0 0.0
2015-Aug-25 18:27N 40°38' W 074°08'0 0.0
2015-Aug-25 17:33N 40°38' W 074°08'0 0.0
2015-Aug-25 16:33N 40°38' W 074°08'0 0.0
2015-Aug-25 15:28N 40°38' W 074°08'0 0.0
2015-Aug-25 14:33N 40°38' W 074°08'0 0.0
2015-Aug-25 13:33N 40°38' W 074°08'3 2.8
2015-Aug-25 12:33N 40°38' W 074°11'5 5.0
2015-Aug-25 11:33N 40°39' W 074°05'2 1.8
2015-Aug-25 10:33N 40°40' W 074°03'4 4.0
2015-Aug-25 09:33N 40°39' W 074°08'2 1.6
2015-Aug-25 08:33N 40°40' W 074°09'1 0.5
2015-Aug-25 07:31N 40°40' W 074°09'4 4.3
2015-Aug-25 06:33N 40°40' W 074°04'1 1.4
2015-Aug-25 05:33N 40°39' W 074°05'2 1.7
2015-Aug-25 04:23N 40°38' W 074°08'0 0.0
2015-Aug-25 03:33N 40°38' W 074°08'0 0.0
2015-Aug-25 02:29N 40°38' W 074°08'0 0.0
2015-Aug-25 01:31N 40°38' W 074°08'3 2.8
2015-Aug-25 00:33N 40°41' W 074°08'0 0.4
2015-Aug-24 23:33N 40°41' W 074°09'2 2.3
2015-Aug-24 22:32N 40°38' W 074°08'0 0.0
2015-Aug-24 21:30N 40°38' W 074°08'1 0.8
2015-Aug-24 20:33N 40°39' W 074°07'1 0.8
2015-Aug-24 19:33N 40°38' W 074°08'1 0.8
2015-Aug-24 18:33N 40°39' W 074°07'2 2.5
2015-Aug-24 17:33N 40°39' W 074°04'6 6.0
2015-Aug-24 16:34N 40°39' W 074°11'1 0.8
2015-Aug-24 15:33N 40°38' W 074°12'8 8.1
2015-Aug-24 14:33N 40°44' W 074°06'1 1.3
2015-Aug-24 13:33N 40°45' W 074°06'0 0.0
2015-Aug-24 12:33N 40°45' W 074°06'  
Track history (hours):
 
Tides and Currents Weather Stations Pressure Air Temp Water Temp Dewpoint Dewpoint Depression Visibility Wind Speed Wind Dir Waves Ship Positions

James Turecamo

Owner: Moran Towing Corporation, New Canaan, CT. More information available from US FCC via Universal Licensing System and Coast Guard Vessel Documentation Center.

Last reported at 2015-Sep-03 12:33 UTC. Time now 2015-Sep-03 13:00 UTC.
Position N 40°38' W 074°08'.

Length 27 m; draft 4.5 m.

Type: Tug. MMSI: 367073380.

Date/timePositionNaut miles runAvg speedWind from/ knotsBaromVisibWave heightAir tempDewpointWater temp
2015-Sep-03 12:33N 40°38' W 074°08'0 0.0
2015-Sep-03 11:33N 40°38' W 074°08'0 0.0
2015-Sep-03 10:32N 40°38' W 074°08'6 6.6
2015-Sep-03 09:33N 40°44' W 074°05'5 5.1
2015-Sep-03 08:34N 40°49' W 074°02'0 0.5
2015-Sep-03 07:33N 40°49' W 074°02'3 3.5
2015-Sep-03 06:33N 40°46' W 074°05'2 2.1
2015-Sep-03 05:33N 40°44' W 074°06'1 0.6
2015-Sep-03 03:33N 40°44' W 074°07'6 5.8
2015-Sep-03 02:33N 40°39' W 074°08'0 0.1
2015-Sep-03 01:33N 40°38' W 074°08'0 0.0
2015-Sep-03 00:32N 40°38' W 074°08'0 0.0
2015-Sep-02 23:33N 40°38' W 074°08'0 0.0
2015-Sep-02 22:33N 40°38' W 074°08'7 6.9
2015-Sep-02 21:31N 40°33' W 074°14'2 0.9
2015-Sep-02 19:24N 40°35' W 074°13'1 0.3
2015-Sep-02 17:08N 40°35' W 074°12'3 5.8
2015-Sep-02 16:33N 40°39' W 074°11'3 2.7
2015-Sep-02 15:33N 40°38' W 074°08'0 0.0
2015-Sep-02 14:33N 40°38' W 074°08'0 0.0
2015-Sep-02 13:26N 40°38' W 074°08'0 0.0
2015-Sep-02 12:33N 40°38' W 074°08'0 0.0
2015-Sep-02 11:33N 40°38' W 074°08'1 0.9
2015-Sep-02 10:33N 40°39' W 074°09'2 2.4
2015-Sep-02 09:33N 40°41' W 074°09'3 2.6
2015-Sep-02 08:33N 40°38' W 074°08'0 0.0
2015-Sep-02 07:33N 40°38' W 074°08'0 0.0
2015-Sep-02 06:33N 40°38' W 074°08'0 0.0
2015-Sep-02 05:33N 40°38' W 074°08'3 2.6
2015-Sep-02 04:33N 40°41' W 074°08'1 1.3
2015-Sep-02 03:33N 40°40' W 074°09'1 1.3
2015-Sep-02 02:33N 40°38' W 074°08'0 0.0
2015-Sep-02 01:33N 40°38' W 074°08'4 4.0
2015-Sep-02 00:33N 40°36' W 074°12'3 3.2
2015-Sep-01 23:33N 40°33' W 074°14'3 1.0
2015-Sep-01 20:31N 40°36' W 074°12'1 0.9
2015-Sep-01 19:29N 40°35' W 074°13'6 4.9
2015-Sep-01 18:14N 40°29' W 074°15'10 5.9
2015-Sep-01 16:33N 40°39' W 074°11'3 2.6
2015-Sep-01 15:33N 40°38' W 074°08'0 0.0
2015-Sep-01 14:33N 40°38' W 074°08'0 0.0
2015-Sep-01 13:31N 40°38' W 074°08'0 0.0
2015-Sep-01 12:29N 40°38' W 074°08'0 0.0
2015-Sep-01 11:33N 40°38' W 074°08'0 0.0
2015-Sep-01 10:20N 40°38' W 074°08'0 0.0
2015-Sep-01 09:23N 40°38' W 074°08'3 3.6
2015-Sep-01 08:33N 40°41' W 074°09'0 0.2
2015-Sep-01 07:33N 40°41' W 074°09'3 2.8
2015-Sep-01 06:33N 40°39' W 074°07'6 5.5
2015-Sep-01 05:33N 40°41' W 074°01'4 4.0
2015-Sep-01 04:33N 40°39' W 074°05'6 2.5
2015-Sep-01 02:10N 40°36' W 074°12'3 4.9
2015-Sep-01 01:33N 40°39' W 074°10'5 5.2
2015-Sep-01 00:33N 40°38' W 074°03'3 3.4
2015-Aug-31 23:33N 40°38' W 074°08'0 0.0
2015-Aug-31 22:33N 40°38' W 074°08'5 5.0
2015-Aug-31 21:28N 40°34' W 074°13'3 2.9
2015-Aug-31 20:31N 40°37' W 074°12'4 3.7
2015-Aug-31 19:33N 40°38' W 074°08'0 0.0
2015-Aug-31 18:32N 40°38' W 074°08'0 0.0
2015-Aug-31 17:32N 40°38' W 074°08'0 0.0
2015-Aug-31 16:33N 40°38' W 074°08'0 0.0
2015-Aug-31 15:33N 40°38' W 074°08'5 4.4
2015-Aug-31 14:31N 40°35' W 074°12'1 0.4
2015-Aug-31 12:05N 40°36' W 074°12'4 7.7
2015-Aug-31 11:34N 40°39' W 074°08'0 0.1
2015-Aug-31 10:33N 40°38' W 074°08'0 0.0
2015-Aug-31 09:33N 40°38' W 074°08'0 0.1
2015-Aug-31 08:33N 40°39' W 074°08'1 0.6
2015-Aug-31 07:33N 40°39' W 074°07'1 0.7
2015-Aug-31 06:33N 40°38' W 074°08'0 0.0
2015-Aug-31 05:33N 40°38' W 074°08'0 0.0
2015-Aug-31 04:33N 40°38' W 074°08'0 0.0
2015-Aug-31 03:33N 40°38' W 074°08'0 0.0
2015-Aug-31 02:33N 40°38' W 074°08'0 0.0
2015-Aug-31 01:33N 40°38' W 074°08'0 0.0
2015-Aug-31 00:33N 40°38' W 074°08'0 0.0
2015-Aug-30 23:33N 40°38' W 074°08'0 0.3
2015-Aug-30 22:33N 40°39' W 074°08'5 4.6
2015-Aug-30 21:33N 40°35' W 074°12'2 2.2
2015-Aug-30 20:33N 40°37' W 074°12'5 5.3
2015-Aug-30 19:34N 40°39' W 074°05'2 1.8
2015-Aug-30 18:33N 40°38' W 074°08'0 0.0
2015-Aug-30 17:33N 40°38' W 074°08'0 0.0
2015-Aug-30 16:33N 40°38' W 074°08'4 3.7
2015-Aug-30 15:33N 40°41' W 074°04'2 1.7
2015-Aug-30 14:33N 40°40' W 074°03'4 3.8
2015-Aug-30 13:33N 40°38' W 074°08'1 1.5
2015-Aug-30 12:33N 40°39' W 074°06'1 1.0
2015-Aug-30 11:08N 40°38' W 074°08'0 0.0
2015-Aug-30 10:33N 40°38' W 074°08'0 0.0
2015-Aug-30 09:33N 40°38' W 074°08'0 0.0
2015-Aug-30 08:33N 40°38' W 074°08'0 0.0
2015-Aug-30 07:33N 40°38' W 074°08'0 0.0
2015-Aug-30 06:33N 40°38' W 074°08'0 0.0
2015-Aug-30 05:24N 40°38' W 074°08'0 0.0
2015-Aug-30 04:33N 40°38' W 074°08'0 0.2
2015-Aug-30 03:33N 40°39' W 074°08'4 0.7
2015-Aug-29 21:29N 40°36' W 074°12'4 1.7
2015-Aug-29 19:04N 40°38' W 074°08'0 0.0
2015-Aug-29 18:33N 40°38' W 074°08'0 0.0
2015-Aug-29 17:16N 40°38' W 074°08'0 0.0
2015-Aug-29 16:29N 40°38' W 074°08'0 0.0
2015-Aug-29 15:33N 40°38' W 074°08'1 1.4
2015-Aug-29 14:33N 40°40' W 074°09'1 0.4
2015-Aug-29 11:08N 40°38' W 074°08'0 0.0
2015-Aug-29 10:25N 40°38' W 074°08'0 0.0
2015-Aug-29 09:33N 40°38' W 074°08'1 1.0
2015-Aug-29 08:29N 40°39' W 074°09'2 1.9
2015-Aug-29 07:33N 40°41' W 074°09'2 2.4
2015-Aug-29 06:31N 40°38' W 074°08'0 0.0
2015-Aug-29 05:32N 40°38' W 074°08'5 4.0
2015-Aug-29 04:21N 40°35' W 074°12'1 0.9
2015-Aug-29 03:09N 40°36' W 074°12'4 6.6
2015-Aug-29 02:33N 40°38' W 074°08'0 0.0
2015-Aug-29 00:27N 40°38' W 074°08'4 4.3
2015-Aug-28 23:31N 40°36' W 074°12'2 0.7
2015-Aug-28 20:33N 40°38' W 074°12'3 2.2
2015-Aug-28 19:11N 40°38' W 074°08'0 0.0
2015-Aug-28 18:32N 40°38' W 074°08'0 0.0
2015-Aug-28 16:09N 40°38' W 074°08'0 0.1
2015-Aug-28 15:33N 40°38' W 074°08'0 0.0
2015-Aug-28 14:33N 40°38' W 074°08'3 2.6
2015-Aug-28 13:33N 40°39' W 074°11'3 3.4
2015-Aug-28 12:33N 40°35' W 074°12'3 2.6
2015-Aug-28 11:33N 40°38' W 074°12'7 6.6
2015-Aug-28 10:33N 40°39' W 074°04'3 1.0
2015-Aug-28 07:20N 40°38' W 074°08'0 0.0
2015-Aug-28 06:12N 40°38' W 074°08'0 0.0
2015-Aug-28 04:18N 40°38' W 074°08'0 0.0
2015-Aug-28 03:33N 40°38' W 074°08'0 0.0
2015-Aug-28 01:28N 40°38' W 074°08'0 0.0
2015-Aug-27 23:33N 40°38' W 074°08'0 0.0
2015-Aug-27 21:22N 40°38' W 074°08'1 1.8
2015-Aug-27 20:33N 40°40' W 074°09'0 0.2
2015-Aug-27 19:33N 40°39' W 074°09'0 0.1
2015-Aug-27 18:33N 40°40' W 074°09'1 1.4
2015-Aug-27 17:33N 40°38' W 074°08'0 0.0
2015-Aug-27 16:32N 40°38' W 074°08'0 0.0
2015-Aug-27 15:30N 40°38' W 074°08'0 0.0
2015-Aug-27 12:27N 40°38' W 074°08'2 2.5
2015-Aug-27 11:33N 40°39' W 074°05'4 3.8
2015-Aug-27 10:33N 40°40' W 074°00'5 4.7
2015-Aug-27 09:33N 40°39' W 074°06'1 1.3
2015-Aug-27 08:32N 40°38' W 074°08'0 0.0
2015-Aug-27 07:32N 40°38' W 074°08'0 0.0
2015-Aug-27 06:30N 40°38' W 074°08'0 0.0
2015-Aug-27 05:17N 40°38' W 074°08'3 3.6
2015-Aug-27 04:33N 40°39' W 074°04'1 0.6
2015-Aug-27 03:33N 40°39' W 074°05'2 0.9
2015-Aug-27 01:10N 40°38' W 074°08'0 0.0
2015-Aug-27 00:33N 40°38' W 074°08'3 3.0
2015-Aug-26 23:33N 40°41' W 074°08'3 2.8
2015-Aug-26 22:34N 40°39' W 074°07'1 1.2
2015-Aug-26 21:33N 40°39' W 074°06'2 1.6
2015-Aug-26 20:32N 40°38' W 074°08'1 1.5
2015-Aug-26 19:33N 40°39' W 074°06'1 0.7
2015-Aug-26 17:32N 40°38' W 074°08'2 0.8
2015-Aug-26 15:33N 40°39' W 074°10'3 3.4
2015-Aug-26 14:33N 40°39' W 074°05'2 1.8
2015-Aug-26 13:28N 40°38' W 074°08'3 3.6
2015-Aug-26 12:33N 40°42' W 074°09'0 0.4
2015-Aug-26 11:33N 40°41' W 074°08'1 0.6
2015-Aug-26 10:30N 40°42' W 074°09'2 1.8
2015-Aug-26 09:34N 40°40' W 074°08'2 0.4
2015-Aug-26 05:25N 40°38' W 074°08'0 0.0
2015-Aug-26 04:17N 40°38' W 074°08'2 3.1
2015-Aug-26 03:29N 40°39' W 074°11'3 0.9
2015-Aug-26 00:28N 40°36' W 074°12'4 4.3
2015-Aug-25 23:33N 40°38' W 074°08'0 0.0
2015-Aug-25 22:28N 40°38' W 074°08'0 0.0
2015-Aug-25 18:27N 40°38' W 074°08'0 0.0
2015-Aug-25 17:33N 40°38' W 074°08'0 0.0
2015-Aug-25 16:33N 40°38' W 074°08'0 0.0
2015-Aug-25 15:28N 40°38' W 074°08'0 0.0
2015-Aug-25 14:33N 40°38' W 074°08'0 0.0
2015-Aug-25 13:33N 40°38' W 074°08'3 2.8
2015-Aug-25 12:33N 40°38' W 074°11'5 5.0
2015-Aug-25 11:33N 40°39' W 074°05'2 1.8
2015-Aug-25 10:33N 40°40' W 074°03'4 4.0
2015-Aug-25 09:33N 40°39' W 074°08'2 1.6
2015-Aug-25 08:33N 40°40' W 074°09'1 0.5
2015-Aug-25 07:31N 40°40' W 074°09'4 4.3
2015-Aug-25 06:33N 40°40' W 074°04'1 1.4
2015-Aug-25 05:33N 40°39' W 074°05'2 1.7
2015-Aug-25 04:23N 40°38' W 074°08'0 0.0
2015-Aug-25 03:33N 40°38' W 074°08'0 0.0
2015-Aug-25 02:29N 40°38' W 074°08'0 0.0
2015-Aug-25 01:31N 40°38' W 074°08'3 2.8
2015-Aug-25 00:33N 40°41' W 074°08'0 0.4
2015-Aug-24 23:33N 40°41' W 074°09'2 2.3
2015-Aug-24 22:32N 40°38' W 074°08'0 0.0
2015-Aug-24 21:30N 40°38' W 074°08'1 0.8
2015-Aug-24 20:33N 40°39' W 074°07'1 0.8
2015-Aug-24 19:33N 40°38' W 074°08'1 0.8
2015-Aug-24 18:33N 40°39' W 074°07'2 2.5
2015-Aug-24 17:33N 40°39' W 074°04'6 6.0
2015-Aug-24 16:34N 40°39' W 074°11'1 0.8
2015-Aug-24 15:33N 40°38' W 074°12'8 8.1
2015-Aug-24 14:33N 40°44' W 074°06'1 1.3
2015-Aug-24 13:33N 40°45' W 074°06'0 0.0
2015-Aug-24 12:33N 40°45' W 074°06'  

Dump ship's entire track history